デンパサール国際空港の過去48時間の天気

デンパサール国際空港 (Ngurah Rai International Airport)

現在時刻: 7/5 10:55 WITA (7/5 02:55 UTC) 以下の時間は現地時間です。

過去48時間のMETAR気象情報
時間 風向 風速(m/s) 視程 気温(℃) 湿度(%) 気圧(hPa) 天気現象
5 10:30 東南東 8 10km以上 29 84 1010
5 10:00 東南東 7 10km以上 28 89 1010
5 09:30 東南東 7 10km以上 28 89 1010
5 09:00 5 10km以上 28 89 1010
5 08:30 5 10km以上 27 94 1010
5 08:00 東南東 5 10km以上 27 94 1010
5 07:30 東南東 5 10km以上 27 94 1009
5 07:00 東南東 5 10km以上 27 94 1009
5 06:30 東南東 5 10km以上 27 94 1009
5 06:00 東南東 5 10km以上 27 94 1009
5 05:30 東南東 6 10km以上 27 94 1009
5 05:00 東南東 5 10km以上 27 94 1008
5 04:00 東南東 5 10km以上 27 94 1008
5 03:30 東南東 6 10km以上 27 94 1008
5 03:00 東南東 6 10km以上 27 94 1008
5 02:30 東南東 6 10km以上 27 94 1008
5 02:00 東南東 6 10km以上 27 94 1008
5 01:30 東南東 5 10km以上 27 94 1008
5 01:00 東南東 5 10km以上 27 94 1008
5 00:30 4 10km以上 27 94 1009
5 00:00 3 10km以上 27 94 1009
4 23:30 東南東 3 10km以上 28 89 1009
4 23:00 3 10km以上 27 94 1009
4 22:30 3 10km以上 27 94 1009
4 22:00 東南東 4 10km以上 27 94 1009
4 21:30 南東 5 10km以上 27 94 1009
4 21:00 東南東 6 10km以上 27 94 1009
4 20:30 東南東 6 10km以上 27 94 1009
4 20:00 南東 6 10km以上 27 94 1009
4 19:30 東南東 5 10km以上 28 89 1008
4 19:00 東南東 5 10km以上 28 89 1008
4 18:30 東南東 5 10km以上 28 89 1008
4 18:00 東南東 5 10km以上 28 89 1008
4 17:30 東南東 4 10km以上 29 84 1008
4 17:00 東南東 4 10km以上 29 84 1007
4 16:30 東南東 4 10km以上 29 84 1007
4 16:00 5 10km以上 29 84 1007
4 15:30 東南東 5 10km以上 30 79 1007
4 15:00 東南東 4 10km以上 30 79 1007
4 14:30 不定 1 10km以上 29 84 1007
4 14:00 西南西 3 10km以上 29 84 1008
4 13:30 西南西 2 10km以上 29 89 1008
4 13:00 南南西 2 10km以上 29 89 1008
4 12:30 2 10km以上 29 89 1009
4 12:00 東南東 3 10km以上 30 79 1009
4 11:30 東南東 3 10km以上 29 89 1009
4 11:00 東南東 4 10km以上 29 89 1009
4 10:30 東南東 4 10km以上 29 89 1010
4 10:00 東南東 3 10km以上 28 94 1010
4 09:30 3 10km以上 28 94 1010
4 09:00 4 10km以上 28 94 1009
4 08:30 4 10km以上 27 100 1009
4 08:00 東南東 2 10km以上 27 100 1009
4 07:30 東南東 4 10km以上 27 94 1008
4 07:00 東南東 4 10km以上 27 94 1008
4 06:30 3 10km以上 26 100 1008
4 06:00 3 10km以上 26 100 1008
4 05:30 北東 2 10km以上 26 100 1008
4 05:00 3 10km以上 27 94 1008
4 04:30 東南東 3 10km以上 27 94 1007
4 04:00 東南東 3 10km以上 27 94 1007
4 03:30 東南東 3 10km以上 27 94 1007
WADD 050230Z 11015KT 9999 SCT015 29/26 Q1010 NOSIG
WADD 050200Z 12014KT 9999 SCT015 28/26 Q1010 NOSIG
WADD 050130Z 12013KT 9999 BKN015 28/26 Q1010 NOSIG
WADD 050100Z 10009KT 9999 BKN016 28/26 Q1010 NOSIG
WADD 050030Z 10009KT 9999 SCT016 27/26 Q1010 NOSIG
WADD 050000Z 11010KT 9999 SCT016 27/26 Q1010 NOSIG
WADD 042330Z 11009KT 9999 BKN015 27/26 Q1009 NOSIG
WADD 042300Z 11009KT 9999 SCT017 27/26 Q1009 NOSIG
WADD 042230Z 11010KT 9999 BKN017 27/26 Q1009 NOSIG
WADD 042200Z 11010KT 9999 BKN017 27/26 Q1009 NOSIG
WADD 042130Z 12012KT 9999 BKN017 27/26 Q1009 NOSIG
WADD 042100Z 12009KT 9999 BKN017 27/26 Q1008 NOSIG
WADD 042000Z 12010KT 9999 BKN017 27/26 Q1008 NOSIG
WADD 041930Z 12012KT 9999 BKN017 27/26 Q1008 NOSIG
WADD 041900Z 12011KT 9999 BKN017 27/26 Q1008 NOSIG
WADD 041830Z 11012KT 9999 BKN017 27/26 Q1008 NOSIG
WADD 041800Z 11012KT 9999 BKN017 27/26 Q1008 NOSIG
WADD 041730Z 12010KT 9999 SCT017 27/26 Q1008 NOSIG
WADD 041700Z 11009KT 9999 SCT017 27/26 Q1008 NOSIG
WADD 041630Z 10007KT 9999 SCT017 27/26 Q1009 NOSIG
WADD 041600Z 10006KT 9999 SCT017 27/26 Q1009 NOSIG
WADD 041530Z 11006KT 9999 BKN017 28/26 Q1009 NOSIG
WADD 041500Z 10005KT 9999 FEW017 27/26 Q1009 NOSIG
WADD 041430Z 10006KT 9999 FEW017 27/26 Q1009 NOSIG
WADD 041400Z 11008KT 9999 FEW017 27/26 Q1009 NOSIG
WADD 041330Z 13010KT 9999 FEW017 27/26 Q1009 NOSIG
WADD 041300Z 12011KT 9999 FEW017 27/26 Q1009 NOSIG
WADD 041230Z 12011KT 9999 FEW017 27/26 Q1009 NOSIG
WADD 041200Z 13012KT 9999 FEW017 27/26 Q1009 NOSIG
WADD 041130Z 12009KT 9999 FEW017 28/26 Q1008 NOSIG
WADD 041100Z 12010KT 9999 FEW017 28/26 Q1008 NOSIG
WADD 041030Z 11010KT 9999 FEW017 28/26 Q1008 NOSIG
WADD 041000Z 12009KT 9999 FEW017 28/26 Q1008 NOSIG
WADD 040930Z 11008KT 9999 FEW017 29/26 Q1008 NOSIG
WADD 040900Z 11007KT 9999 FEW017 29/26 Q1007 NOSIG
WADD 040830Z 12007KT 9999 SCT017 29/26 Q1007 NOSIG
WADD 040800Z 10009KT 9999 SCT017 29/26 Q1007 NOSIG
WADD 040730Z 11009KT 9999 SCT017 30/26 Q1007 NOSIG
WADD 040700Z 12007KT 9999 FEW016 30/26 Q1007 NOSIG
WADD 040630Z VRB02KT 9999 SCT016 29/26 Q1007 NOSIG
WADD 040600Z 24005KT 9999 SCT016 29/26 Q1008 NOSIG
WADD 040530Z 24004KT 130V290 9999 FEW016 29/27 Q1008 NOSIG
WADD 040500Z 21003KT 9999 FEW017 29/27 Q1008 NOSIG
WADD 040430Z 19004KT 130V240 9999 FEW017 29/27 Q1009 NOSIG
WADD 040400Z 12006KT 9999 FEW017 30/26 Q1009 NOSIG
WADD 040330Z 12006KT 9999 FEW017 29/27 Q1009 NOSIG
WADD 040300Z 12008KT 9999 FEW017 29/27 Q1009 NOSIG
WADD 040230Z 12008KT 9999 FEW017 29/27 Q1010 NOSIG
WADD 040200Z 12006KT 9999 SCT016 28/27 Q1010 NOSIG
WADD 040130Z 10005KT 070V130 9999 FEW017 28/27 Q1010 NOSIG
WADD 040100Z 10008KT 9999 SCT016 28/27 Q1009 NOSIG
WADD 040030Z 10008KT 9999 SCT016 27/27 Q1009 NOSIG
WADD 040000Z 11004KT 9999 SCT015 27/27 Q1009 NOSIG
WADD 032330Z 12007KT 9999 SCT015 27/26 Q1008 NOSIG
WADD 032300Z 12007KT 9999 BKN015 27/26 Q1008 NOSIG
WADD 032230Z 10005KT 9999 BKN015 26/26 Q1008 NOSIG
WADD 032200Z 08005KT 9999 BKN015 26/26 Q1008 NOSIG
WADD 032130Z 04004KT 010V070 9999 BKN015 26/26 Q1008 NOSIG
WADD 032100Z 09005KT 040V110 9999 BKN015 27/26 Q1008 NOSIG
WADD 032030Z 12005KT 9999 SCT016 27/26 Q1007 NOSIG
WADD 032000Z 12005KT 9999 SCT016 27/26 Q1007 NOSIG
WADD 031930Z 12005KT 9999 SCT016 27/26 Q1007 NOSIG